Terminal Aerodrome Forecast
Issued by NWS Blacksburg, VA

Home | Current Version | Previous Version | Text Only | Print | Product List | Glossary On
Versions: 1 2 3 4 5 6 7 8 9 10 11 12 13 14 15 16 17 18 19 20 21 22 23 24 25 26 27 28 29 30 31
000
FTUS41 KRNK 261140
TAFLYH
TAF
KLYH 261140Z 2612/2712 03007KT P6SM -SHRA OVC007
     FM261400 02008KT P6SM -SHRA SCT007 BKN015 OVC021
     FM261900 01007KT P6SM VCSH BKN025
     FM262300 36006KT P6SM BKN040
     FM270600 29005KT P6SM SCT050=

USA.gov is the U.S. government's official web portal to all federal, state and local government web resources and services.